Time;durP1;ratioP1;P1;durP2;ratioP2;P2;SDS_P1;SDS_P2;PMS_P1;PMS_P2;Temp;Humidity;BMP_temperature;BMP_pressure;BME280_temperature;BME280_humidity;BME280_pressure;Samples;Min_cycle;Max_cycle;Signal;HPM_P1;HPM_P2
2022/06/05 00:02:15;;;;;;;14.25;8.20;;;;;;;17.68;60.06;101897.25;4961090;28;20046;-64
2022/06/05 00:05:02;;;;;;;13.15;7.95;;;;;;;17.61;59.82;101891.94;4949493;28;20501;-64
2022/06/05 00:07:43;;;;;;;14.18;7.85;;;;;;;17.66;59.83;101903.38;4959378;28;20038;-65
2022/06/05 00:10:22;;;;;;;13.38;8.13;;;;;;;17.30;60.62;101915.59;4963052;28;20053;-64
2022/06/05 00:13:12;;;;;;;15.30;8.50;;;;;;;17.47;60.35;101912.09;4959093;28;20046;-66
2022/06/05 00:15:38;;;;;;;14.93;8.10;;;;;;;17.52;59.77;101918.25;4965598;28;20045;-64
2022/06/05 00:18:04;;;;;;;13.32;8.13;;;;;;;17.37;60.48;101913.84;4965765;28;20113;-64
2022/06/05 00:20:31;;;;;;;13.57;7.82;;;;;;;17.67;59.62;101910.41;4958357;28;20077;-64
2022/06/05 00:22:57;;;;;;;13.88;8.43;;;;;;;17.53;60.12;101898.94;4950257;28;20314;-67
2022/06/05 00:25:30;;;;;;;15.48;8.15;;;;;;;17.50;59.89;101902.47;4950443;28;20046;-65
2022/06/05 00:28:42;;;;;;;12.73;8.18;;;;;;;17.26;60.79;101891.88;4959706;28;20042;-65
2022/06/05 00:31:16;;;;;;;15.52;8.13;;;;;;;17.40;60.33;101893.63;4956459;28;20571;-65
2022/06/05 00:33:41;;;;;;;14.25;8.10;;;;;;;17.40;60.33;101879.56;4983654;28;20038;-63
2022/06/05 00:36:22;;;;;;;14.55;8.73;;;;;;;17.48;59.96;101869.06;4978414;28;20049;-65
2022/06/05 00:38:59;;;;;;;13.77;8.35;;;;;;;17.31;60.51;101875.19;4945166;28;20132;-63
2022/06/05 00:41:34;;;;;;;13.68;8.73;;;;;;;17.17;60.75;101874.28;4964548;28;20425;-65
2022/06/05 00:44:02;;;;;;;12.95;8.10;;;;;;;17.49;60.10;101866.41;4957563;28;20049;-65
2022/06/05 00:46:28;;;;;;;12.75;8.20;;;;;;;17.22;60.78;101858.47;4965377;28;20049;-63
2022/06/05 00:48:55;;;;;;;16.33;8.20;;;;;;;17.45;59.97;101862.88;4953773;28;20037;-63
2022/06/05 00:51:20;;;;;;;13.77;7.97;;;;;;;17.34;60.25;101863.75;4969318;28;20573;-65
2022/06/05 00:53:47;;;;;;;14.05;8.30;;;;;;;17.35;60.31;101866.41;4952818;28;20514;-65
2022/06/05 00:56:12;;;;;;;14.88;7.90;;;;;;;17.48;59.95;101855.88;4956916;28;20287;-64
2022/06/05 00:58:41;;;;;;;12.35;8.25;;;;;;;17.52;59.86;101863.78;4956844;28;20503;-65
2022/06/05 01:01:07;;;;;;;14.75;8.25;;;;;;;17.50;60.23;101862.91;4959231;28;20115;-65
2022/06/05 01:03:33;;;;;;;11.52;8.50;;;;;;;17.38;60.20;101860.25;4960880;28;20041;-63
2022/06/05 01:05:58;;;;;;;14.65;8.25;;;;;;;17.36;60.15;101857.63;4963742;28;20319;-63
2022/06/05 01:08:25;;;;;;;14.95;8.32;;;;;;;17.36;60.08;101862.91;4957842;28;20034;-63
2022/06/05 01:11:00;;;;;;;15.73;8.30;;;;;;;17.29;60.41;101850.56;4952282;28;20049;-63
2022/06/05 01:13:36;;;;;;;;;;;;;;;17.22;60.63;101851.44;4959347;28;20561;-65
2022/06/05 01:16:10;;;;;;;13.23;8.20;;;;;;;17.46;60.27;101850.59;4959626;28;19983;-64
2022/06/05 01:18:35;;;;;;;;;;;;;;;17.29;60.60;101857.59;4955965;28;20103;-66
2022/06/05 01:21:48;;;;;;;13.98;8.30;;;;;;;17.12;60.97;101862.84;4952384;28;19933;-65
2022/06/05 01:24:44;;;;;;;13.07;8.73;;;;;;;17.36;60.28;101878.72;4978853;28;20056;-65
2022/06/05 01:27:14;;;;;;;16.42;8.45;;;;;;;17.40;59.96;101903.31;4977322;28;20057;-67
2022/06/05 01:29:44;;;;;;;13.07;8.52;;;;;;;17.45;60.02;101936.69;4963569;28;20449;-65
2022/06/05 01:32:18;;;;;;;14.55;8.60;;;;;;;17.61;59.36;101956.13;4959793;28;20034;-65
2022/06/05 01:34:48;;;;;;;13.80;7.80;;;;;;;17.73;59.18;101948.22;4957969;28;20034;-64
2022/06/05 01:37:26;;;;;;;17.90;8.05;;;;;;;17.83;59.13;101936.78;4951163;28;20045;-65
2022/06/05 01:40:24;;;;;;;14.80;8.77;;;;;;;17.40;59.97;101956.03;4953969;28;20052;-64
2022/06/05 01:42:57;;;;;;;15.65;8.45;;;;;;;17.70;59.23;101947.31;4955122;28;20510;-64
2022/06/05 01:45:44;;;;;;;15.60;8.60;;;;;;;17.65;59.25;101925.34;4957683;28;20432;-64
2022/06/05 01:48:14;;;;;;;14.15;8.45;;;;;;;17.83;59.10;101938.53;4964600;28;20056;-65
2022/06/05 01:50:45;;;;;;;11.75;8.38;;;;;;;17.86;58.51;101940.31;4955510;28;20864;-65
2022/06/05 01:53:20;;;;;;;13.77;8.50;;;;;;;17.90;58.60;101921.84;4959963;28;20053;-63
2022/06/05 01:55:56;;;;;;;15.45;8.27;;;;;;;17.83;58.80;101914.81;4959707;28;20064;-65
2022/06/05 01:58:43;;;;;;;15.82;8.63;;;;;;;17.86;58.87;101929.78;4960397;28;20038;-64
2022/06/05 02:01:19;;;;;;;13.07;7.85;;;;;;;17.80;59.04;101914.81;4980559;28;20046;-63
2022/06/05 02:03:50;;;;;;;13.50;7.78;;;;;;;17.85;59.18;101902.50;4955430;28;20057;-65
2022/06/05 02:06:21;;;;;;;16.33;8.60;;;;;;;17.73;59.24;101907.78;4963590;28;20149;-64
2022/06/05 02:08:50;;;;;;;15.13;8.32;;;;;;;17.68;59.16;101901.63;4949761;28;20053;-65
2022/06/05 02:11:22;;;;;;;14.80;8.20;;;;;;;17.67;60.15;101887.56;4963807;28;20692;-65
2022/06/05 02:13:50;;;;;;;15.43;8.80;;;;;;;17.58;61.20;101876.97;4961712;28;20053;-64
2022/06/05 02:16:16;;;;;;;16.05;8.95;;;;;;;17.21;63.06;101877.78;4956815;28;20050;-61
2022/06/05 02:18:41;;;;;;;19.35;9.18;;;;;;;17.29;62.94;101881.31;4962253;28;20038;-63
2022/06/05 02:21:07;;;;;;;13.75;8.88;;;;;;;17.16;63.27;101872.50;4951013;28;20064;-63
2022/06/05 02:23:35;;;;;;;14.65;8.95;;;;;;;17.19;63.48;101866.38;4960373;28;20128;-63
2022/06/05 02:26:02;;;;;;;15.10;9.35;;;;;;;17.17;64.16;101862.84;4960666;28;20642;-62
2022/06/05 02:28:28;;;;;;;13.75;8.90;;;;;;;17.01;63.92;101861.94;4959653;28;20603;-64
2022/06/05 02:30:53;;;;;;;14.95;9.13;;;;;;;17.01;64.00;101847.03;4949554;28;20493;-63
2022/06/05 02:33:37;;;;;;;13.82;8.95;;;;;;;16.73;64.81;101852.19;4956314;28;20526;-63
2022/06/05 02:36:31;;;;;;;12.88;8.43;;;;;;;17.05;64.97;101847.91;4956215;28;20501;-62
2022/06/05 02:39:07;;;;;;;11.80;8.63;;;;;;;16.90;65.00;101838.19;4955632;28;20037;-62
2022/06/05 02:41:54;;;;;;;14.32;8.60;;;;;;;16.69;66.50;101840.78;4953266;28;20277;-63
2022/06/05 02:44:39;;;;;;;13.50;8.15;;;;;;;16.63;66.78;101823.19;4956399;28;20271;-62
2022/06/05 02:47:35;;;;;;;14.18;8.20;;;;;;;16.81;66.91;101805.69;4956316;28;20042;-60
2022/06/05 02:50:13;;;;;;;14.75;8.32;;;;;;;16.56;67.66;101799.44;4958638;28;20042;-63
2022/06/05 02:52:41;;;;;;;19.80;9.15;;;;;;;16.44;68.96;101792.38;4953738;28;20050;-62
2022/06/05 02:55:17;;;;;;;17.55;9.07;;;;;;;16.21;69.59;101779.13;4958601;28;20042;-63
2022/06/05 02:57:43;;;;;;;15.60;8.63;;;;;;;16.35;69.36;101781.78;4958310;28;20049;-61
2022/06/05 03:00:16;;;;;;;16.42;8.57;;;;;;;16.33;70.24;101765.16;4960395;28;20206;-62
2022/06/05 03:05:27;;;;;;;17.63;9.55;;;;;;;16.08;71.50;101760.66;4958374;28;20283;-64
2022/06/05 03:07:52;;;;;;;18.27;9.43;;;;;;;15.96;71.77;101753.56;4958931;28;20449;-62
2022/06/05 03:10:18;;;;;;;21.38;9.45;;;;;;;15.92;72.17;101754.41;4958322;28;20077;-63
2022/06/05 03:12:45;;;;;;;18.92;9.40;;;;;;;16.02;72.04;101737.81;4951100;28;20491;-66
2022/06/05 03:15:11;;;;;;;18.38;9.55;;;;;;;15.92;72.34;101733.38;4957725;28;20413;-63
2022/06/05 03:17:36;;;;;;;20.50;9.43;;;;;;;15.85;72.66;101731.59;4961618;28;20049;-64
2022/06/05 03:20:03;;;;;;;22.05;9.95;;;;;;;15.64;73.11;101726.19;4952998;28;20592;-63
2022/06/05 03:22:29;;;;;;;18.52;9.52;;;;;;;15.57;73.66;101709.50;4960665;28;20053;-63
2022/06/05 03:24:54;;;;;;;22.60;10.05;;;;;;;15.42;74.01;101710.28;4938839;28;20041;-64
2022/06/05 03:27:20;;;;;;;17.27;9.32;;;;;;;15.41;73.52;101712.88;4961957;28;20592;-62
2022/06/05 03:29:46;;;;;;;17.77;9.55;;;;;;;15.32;73.59;101704.91;4962938;28;20052;-64
2022/06/05 03:32:13;;;;;;;18.60;10.13;;;;;;;15.31;74.05;101703.16;4958763;28;20195;-63
2022/06/05 03:34:40;;;;;;;18.50;9.70;;;;;;;15.49;73.65;101703.28;4959611;28;20038;-63
2022/06/05 03:37:05;;;;;;;17.52;9.70;;;;;;;15.44;73.36;101698.00;4952316;28;21314;-63
2022/06/05 03:39:32;;;;;;;17.30;9.63;;;;;;;15.36;74.18;101699.72;4966394;28;20556;-64
2022/06/05 03:41:59;;;;;;;21.02;10.40;;;;;;;15.14;74.84;101679.41;4955564;28;20236;-65
2022/06/05 03:44:25;;;;;;;19.63;10.45;;;;;;;15.49;73.91;101679.63;4962726;28;20104;-65
2022/06/05 03:46:51;;;;;;;21.80;9.95;;;;;;;15.43;73.93;101690.09;4946066;28;20387;-64
2022/06/05 03:49:16;;;;;;;18.20;10.05;;;;;;;15.18;74.25;101678.59;4965980;28;20049;-64
2022/06/05 03:51:44;;;;;;;20.27;10.10;;;;;;;15.16;74.53;101664.53;4963285;28;20464;-63
2022/06/05 03:54:09;;;;;;;17.77;9.55;;;;;;;15.24;74.08;101661.97;4960664;28;20038;-63
2022/06/05 03:56:34;;;;;;;18.60;10.18;;;;;;;15.39;73.74;101654.19;4964092;28;20057;-63
2022/06/05 03:59:00;;;;;;;21.08;10.00;;;;;;;15.35;73.12;101661.19;4963512;28;20240;-64
2022/06/05 04:01:27;;;;;;;18.05;9.82;;;;;;;15.25;73.35;101661.09;4962796;28;20038;-64
2022/06/05 04:03:54;;;;;;;20.80;9.80;;;;;;;15.44;73.26;101668.22;4959445;28;20478;-64
2022/06/05 04:06:27;;;;;;;18.98;9.95;;;;;;;15.37;73.30;101667.31;4960899;28;20173;-65
2022/06/05 04:08:55;;;;;;;19.90;9.85;;;;;;;15.39;73.25;101676.09;4948944;28;20050;-64
2022/06/05 04:11:20;;;;;;;18.50;10.10;;;;;;;15.43;73.07;101680.47;4951028;28;20057;-64
2022/06/05 04:13:46;;;;;;;19.83;10.18;;;;;;;15.29;73.62;101683.91;4976073;28;20462;-66
2022/06/05 04:16:18;;;;;;;18.65;10.10;;;;;;;15.30;73.28;101672.53;4957260;28;20149;-64
2022/06/05 04:18:43;;;;;;;21.23;9.98;;;;;;;15.20;73.62;101663.69;4949225;28;20551;-66
2022/06/05 04:21:17;;;;;;;20.48;10.35;;;;;;;15.18;73.75;101656.69;4961046;28;20041;-62
2022/06/05 04:23:42;;;;;;;21.13;10.23;;;;;;;15.15;73.84;101656.66;4966317;28;20088;-63
2022/06/05 04:26:10;;;;;;;18.50;10.00;;;;;;;15.14;73.75;101670.66;4953208;28;20081;-64
2022/06/05 04:28:39;;;;;;;20.45;9.65;;;;;;;15.27;73.52;101665.50;4958550;28;20061;-64
2022/06/05 04:31:25;;;;;;;17.50;9.80;;;;;;;15.29;73.31;101652.38;4953927;28;20041;-63
2022/06/05 04:33:52;;;;;;;20.15;10.38;;;;;;;15.23;73.64;101665.47;4963032;28;20073;-64
2022/06/05 04:36:19;;;;;;;22.70;10.13;;;;;;;14.99;74.32;101663.53;4956593;28;20521;-64
2022/06/05 04:38:45;;;;;;;19.02;9.75;;;;;;;15.17;73.96;101671.56;4951230;28;20057;-64
2022/06/05 04:41:10;;;;;;;19.50;10.23;;;;;;;15.27;73.48;101670.75;4962112;28;20128;-64
2022/06/05 04:43:36;;;;;;;19.40;10.02;;;;;;;15.18;73.74;101659.31;4959775;28;20096;-64
2022/06/05 04:46:03;;;;;;;19.83;10.05;;;;;;;15.09;74.01;101649.59;4957009;28;20042;-63
2022/06/05 04:48:29;;;;;;;20.65;10.02;;;;;;;15.23;73.49;101660.22;4963585;28;20753;-63
2022/06/05 04:50:54;;;;;;;20.35;10.00;;;;;;;15.13;73.95;101651.38;4953948;28;20486;-64
2022/06/05 04:53:20;;;;;;;17.90;9.98;;;;;;;15.08;73.90;101646.97;4973158;28;20765;-64
2022/06/05 04:55:45;;;;;;;17.15;9.63;;;;;;;15.23;73.94;101631.31;4962076;28;20169;-64
2022/06/05 04:58:12;;;;;;;18.70;9.60;;;;;;;15.21;73.93;101631.31;4957514;28;20077;-64
2022/06/05 05:00:40;;;;;;;21.38;10.32;;;;;;;15.23;73.94;101640.09;4961266;28;20045;-62
2022/06/05 05:03:06;;;;;;;19.33;10.13;;;;;;;15.01;74.28;101625.91;4954343;28;20116;-63
2022/06/05 05:05:33;;;;;;;23.02;10.43;;;;;;;15.13;74.43;101635.63;4958742;28;20037;-63
2022/06/05 05:07:59;;;;;;;16.35;10.25;;;;;;;15.17;74.82;101644.41;4959924;28;20477;-64
2022/06/05 05:10:24;;;;;;;18.70;10.40;;;;;;;15.34;73.95;101633.16;4957737;28;20269;-63
2022/06/05 05:12:49;;;;;;;18.60;9.80;;;;;;;15.16;73.97;101637.41;4972701;28;20374;-63
2022/06/05 05:15:15;;;;;;;19.05;10.68;;;;;;;15.22;74.14;101638.31;4951642;28;20049;-63
2022/06/05 05:17:40;;;;;;;20.55;10.50;;;;;;;15.37;73.71;101642.78;4961989;28;20057;-63
2022/06/05 05:20:06;;;;;;;19.75;9.95;;;;;;;15.24;74.12;101641.84;4960743;28;20057;-63
2022/06/05 05:22:37;;;;;;;20.65;10.73;;;;;;;15.30;73.89;101636.63;4957586;28;20058;-63
2022/06/05 05:25:06;;;;;;;20.77;10.10;;;;;;;15.22;74.15;101629.56;4972291;28;20057;-62
2022/06/05 05:27:33;;;;;;;19.10;10.07;;;;;;;15.56;73.42;101620.13;4966456;28;20062;-64
2022/06/05 05:29:58;;;;;;;20.73;9.98;;;;;;;15.34;73.96;101619.13;4967815;28;20057;-64
2022/06/05 05:32:23;;;;;;;15.93;9.90;;;;;;;15.33;73.55;101615.63;4966499;28;20058;-64
2022/06/05 05:34:49;;;;;;;17.38;9.88;;;;;;;15.42;73.71;101636.69;4959221;28;20490;-64
2022/06/05 05:37:14;;;;;;;20.27;9.93;;;;;;;15.55;73.39;101618.41;4964108;28;20050;-64
2022/06/05 05:42:23;;;;;;;20.30;10.25;;;;;;;15.57;73.29;101609.63;4962252;28;20053;-63
2022/06/05 05:44:51;;;;;;;18.27;9.93;;;;;;;15.66;73.16;101603.56;4954786;28;20038;-65
2022/06/05 05:47:23;;;;;;;19.30;10.48;;;;;;;15.64;73.19;101610.53;4961512;28;20045;-64
2022/06/05 05:50:08;;;;;;;22.30;10.80;;;;;;;15.67;73.34;101626.34;4970044;28;20052;-64
2022/06/05 05:52:33;;;;;;;;;;;;;;;15.93;72.73;101626.44;4963574;28;20097;-63
2022/06/05 05:54:59;;;;;;;17.58;10.02;;;;;;;15.96;72.29;101629.97;4957768;28;20252;-64
2022/06/05 05:57:25;;;;;;;19.17;9.93;;;;;;;16.12;72.20;101625.63;4962185;28;20038;-64
2022/06/05 05:59:51;;;;;;;19.25;10.50;;;;;;;16.08;71.89;101622.09;4963338;28;20050;-65
2022/06/05 06:02:21;;;;;;;17.83;10.30;;;;;;;15.91;72.46;101623.81;4958467;28;20073;-64
2022/06/05 06:04:48;;;;;;;21.95;10.43;;;;;;;16.12;71.39;101615.97;4952643;28;20045;-64
2022/06/05 06:07:14;;;;;;;17.85;10.30;;;;;;;15.88;72.00;101626.41;4967488;28;20845;-63
2022/06/05 06:09:40;;;;;;;19.90;10.77;;;;;;;15.95;72.57;101622.06;4965039;28;20127;-64
2022/06/05 06:12:06;;;;;;;15.73;9.75;;;;;;;15.93;72.04;101618.53;4961138;28;20321;-63
2022/06/05 06:14:33;;;;;;;17.90;10.25;;;;;;;15.96;72.22;101611.56;4966212;28;20038;-63
2022/06/05 06:16:58;;;;;;;17.20;10.32;;;;;;;16.01;72.25;101607.19;4951472;28;20987;-63
2022/06/05 06:19:24;;;;;;;17.67;10.27;;;;;;;16.02;71.92;101603.69;4962540;28;20045;-64
2022/06/05 06:21:49;;;;;;;19.38;10.43;;;;;;;15.97;72.16;101605.44;4960855;28;20375;-63
2022/06/05 06:24:14;;;;;;;17.52;10.75;;;;;;;16.08;71.73;101611.59;4960649;28;20586;-64
2022/06/05 06:26:41;;;;;;;19.42;10.38;;;;;;;16.13;71.72;101624.75;4963309;28;20057;-62
2022/06/05 06:29:07;;;;;;;17.50;10.75;;;;;;;16.10;71.56;101620.34;4958333;28;21618;-64
2022/06/05 06:31:34;;;;;;;17.42;10.13;;;;;;;16.09;72.23;101607.22;4965751;28;20116;-63
2022/06/05 06:34:01;;;;;;;15.95;10.13;;;;;;;16.33;71.14;101612.53;4958201;28;20092;-63
2022/06/05 06:36:27;;;;;;;18.40;10.75;;;;;;;16.33;71.75;101616.91;4966224;28;20611;-64
2022/06/05 06:38:52;;;;;;;17.27;10.68;;;;;;;16.32;71.32;101613.38;4954540;28;20399;-63
2022/06/05 06:41:19;;;;;;;19.17;10.93;;;;;;;16.39;71.38;101617.78;4967712;28;20462;-64
2022/06/05 06:43:46;;;;;;;17.75;10.63;;;;;;;16.48;70.66;101615.16;4964105;28;20045;-64
2022/06/05 06:46:13;;;;;;;17.83;9.88;;;;;;;16.21;72.12;101613.38;4966466;28;20325;-63
2022/06/05 06:48:43;;;;;;;16.88;10.48;;;;;;;16.43;71.55;101605.50;4964404;28;20476;-63
2022/06/05 06:51:09;;;;;;;18.45;10.48;;;;;;;16.40;71.35;101603.75;4963217;28;20611;-63
2022/06/05 06:53:37;;;;;;;21.35;11.15;;;;;;;16.30;72.05;101599.34;4962661;28;20056;-63
2022/06/05 06:56:12;;;;;;;18.63;10.48;;;;;;;16.23;71.94;101594.94;4963760;28;20402;-64
2022/06/05 06:58:42;;;;;;;19.35;10.75;;;;;;;16.38;71.50;101589.72;4962092;28;20049;-64
2022/06/05 07:01:08;;;;;;;16.63;10.45;;;;;;;16.29;71.75;101583.53;4959059;28;20084;-63
2022/06/05 07:03:34;;;;;;;18.90;10.30;;;;;;;16.45;71.22;101577.44;4968480;28;20049;-63
2022/06/05 07:06:05;;;;;;;15.63;10.27;;;;;;;16.46;71.30;101574.81;4959541;28;20073;-63
2022/06/05 07:08:31;;;;;;;17.50;10.73;;;;;;;16.50;71.42;101578.31;4961869;28;20490;-64
2022/06/05 07:10:57;;;;;;;17.23;10.18;;;;;;;16.42;70.84;101564.25;4950361;28;20413;-64
2022/06/05 07:13:23;;;;;;;18.17;10.48;;;;;;;16.83;70.54;101561.66;4960936;28;20057;-64
2022/06/05 07:15:48;;;;;;;18.40;10.70;;;;;;;16.69;70.39;101556.41;4965983;28;20236;-64
2022/06/05 07:18:13;;;;;;;18.48;10.57;;;;;;;17.01;70.04;101553.72;4961849;28;20037;-63
2022/06/05 07:20:43;;;;;;;18.63;10.80;;;;;;;16.79;71.07;101552.88;4959279;28;20049;-63
2022/06/05 07:23:09;;;;;;;18.83;10.45;;;;;;;16.79;70.61;101541.47;4962000;28;20049;-64
2022/06/05 07:25:35;;;;;;;17.55;10.52;;;;;;;17.08;69.21;101550.19;4962471;28;20045;-64
2022/06/05 07:28:02;;;;;;;16.80;10.70;;;;;;;17.28;69.33;101543.09;4965672;28;20139;-64
2022/06/05 07:30:27;;;;;;;16.10;10.27;;;;;;;17.32;68.62;101541.34;4962148;28;20037;-65
2022/06/05 07:32:53;;;;;;;17.17;10.57;;;;;;;17.53;68.55;101532.47;4951007;28;20045;-65
2022/06/05 07:35:19;;;;;;;15.25;10.30;;;;;;;17.54;68.21;101532.47;4965595;28;20099;-65
2022/06/05 07:37:45;;;;;;;17.20;11.00;;;;;;;17.29;67.99;101531.69;4968866;28;20080;-64
2022/06/05 07:40:12;;;;;;;18.20;10.73;;;;;;;17.35;68.21;101514.97;4960657;28;20046;-63
2022/06/05 07:42:41;;;;;;;17.60;10.77;;;;;;;17.32;67.62;101507.94;4961223;28;20034;-65
2022/06/05 07:45:09;;;;;;;15.95;10.70;;;;;;;17.93;67.94;101517.34;4956981;28;20153;-66
2022/06/05 07:47:35;;;;;;;14.77;10.10;;;;;;;18.12;67.55;101519.81;4966078;28;20057;-64
2022/06/05 07:50:01;;;;;;;15.20;10.65;;;;;;;18.29;66.25;101506.50;4958653;28;20892;-64
2022/06/05 07:55:11;;;;;;;16.25;11.00;;;;;;;18.60;65.61;101504.50;4958080;28;20052;-64
2022/06/05 07:57:37;;;;;;;16.38;10.75;;;;;;;18.72;64.70;101506.16;4967431;28;20592;-64
2022/06/05 08:00:07;;;;;;;15.35;11.10;;;;;;;19.03;64.94;101502.25;4958578;28;21043;-64
2022/06/05 08:02:33;;;;;;;18.17;11.43;;;;;;;18.66;63.44;101493.00;4959768;28;20038;-63
2022/06/05 08:04:59;;;;;;;15.32;10.98;;;;;;;19.21;64.42;101488.81;4949177;28;20297;-63
2022/06/05 08:07:27;;;;;;;15.05;11.02;;;;;;;19.59;63.44;101488.38;4940667;28;20527;-64
2022/06/05 08:09:52;;;;;;;17.15;11.18;;;;;;;19.44;62.32;101477.97;4960893;28;20049;-64
2022/06/05 08:12:20;;;;;;;17.85;11.55;;;;;;;19.64;61.68;101472.47;4956209;28;20148;-63
2022/06/05 08:14:49;;;;;;;17.00;11.50;;;;;;;19.76;61.51;101482.84;4948603;28;20037;-65
2022/06/05 08:17:20;;;;;;;17.08;11.27;;;;;;;19.44;61.93;101462.13;4959476;28;20072;-65
2022/06/05 08:19:46;;;;;;;16.13;11.13;;;;;;;19.95;61.84;101465.78;4964167;28;20049;-64
2022/06/05 08:22:13;;;;;;;15.52;11.20;;;;;;;19.79;61.39;101467.78;4961390;28;20570;-66
2022/06/05 08:24:52;;;;;;;17.40;11.48;;;;;;;19.92;60.23;101470.25;4956952;28;20045;-63
2022/06/05 08:27:23;;;;;;;16.25;11.43;;;;;;;20.02;60.41;101472.72;4965750;28;20080;-66
2022/06/05 08:29:49;;;;;;;20.95;11.52;;;;;;;20.11;60.12;101483.19;4951350;28;20561;-66
2022/06/05 08:32:14;;;;;;;16.25;11.20;;;;;;;20.44;60.00;101475.56;4960653;28;20145;-65
2022/06/05 08:34:41;;;;;;;15.20;11.18;;;;;;;20.65;59.30;101478.72;4955419;28;20552;-65
2022/06/05 08:42:55;;;;;;;16.83;11.23;;;;;;;22.23;56.21;101477.97;4954449;28;20103;-68
2022/06/05 08:45:30;;;;;;;13.63;10.20;;;;;;;23.16;54.63;101475.47;4959987;28;20079;-64
2022/06/05 08:48:02;;;;;;;16.77;11.70;;;;;;;23.31;52.55;101464.38;4957019;28;20409;-64
2022/06/05 08:50:45;;;;;;;15.80;11.38;;;;;;;23.72;51.72;101478.25;4957298;28;20681;-64
2022/06/05 08:53:49;;;;;;;13.90;10.32;;;;;;;24.26;48.65;101478.28;4955796;28;20085;-67
2022/06/05 08:56:30;;;;;;;18.58;12.25;;;;;;;24.05;49.33;101468.28;4940122;28;20655;-66
2022/06/05 08:59:01;;;;;;;16.45;12.40;;;;;;;23.86;49.56;101478.66;4946031;28;20050;-66
2022/06/05 09:01:40;;;;;;;16.65;12.05;;;;;;;24.18;48.83;101478.53;4975692;28;20328;-65
2022/06/05 09:04:38;;;;;;;15.95;11.80;;;;;;;24.49;48.34;101481.03;4980829;28;20243;-65
2022/06/05 09:07:09;;;;;;;13.50;11.15;;;;;;;24.94;50.31;101494.56;4966907;28;20406;-65
2022/06/05 09:09:51;;;;;;;14.32;11.35;;;;;;;25.38;47.03;101500.03;4980871;28;20116;-67
2022/06/05 09:12:38;;;;;;;13.80;10.50;;;;;;;25.55;47.79;101499.41;4974603;28;20355;-66
2022/06/05 09:15:25;;;;;;;14.50;11.18;;;;;;;26.03;45.63;101499.28;4967210;28;20193;-65
2022/06/05 09:17:58;;;;;;;16.35;10.80;;;;;;;25.83;46.08;101486.72;4983873;28;20288;-67
2022/06/05 09:20:41;;;;;;;15.32;10.23;;;;;;;25.93;46.07;101488.09;4982655;28;20065;-66
2022/06/05 09:23:20;;;;;;;14.35;11.57;;;;;;;25.76;46.77;101485.22;4972423;28;20154;-65
2022/06/05 09:25:53;;;;;;;15.65;11.27;;;;;;;25.66;47.81;101487.41;4983828;28;20033;-64
2022/06/05 09:28:35;;;;;;;16.60;11.85;;;;;;;25.84;46.62;101491.16;4986491;28;20107;-64
2022/06/05 09:31:37;;;;;;;14.50;10.95;;;;;;;26.15;45.62;101491.63;4974261;28;20041;-66
2022/06/05 09:34:11;;;;;;;13.98;11.25;;;;;;;25.90;46.34;101490.03;4986247;28;20594;-65
2022/06/05 09:36:39;;;;;;;14.98;11.90;;;;;;;25.75;45.54;101486.16;4983221;28;20260;-65
2022/06/05 09:39:24;;;;;;;16.30;11.35;;;;;;;25.66;48.06;101484.75;4972031;28;20057;-65
2022/06/05 09:42:19;;;;;;;15.88;12.13;;;;;;;25.90;47.41;101487.34;4982913;28;20038;-67
2022/06/05 09:45:22;;;;;;;15.10;11.73;;;;;;;25.95;47.36;101472.00;4981860;28;20049;-65
2022/06/05 09:48:14;;;;;;;15.07;12.27;;;;;;;25.79;47.18;101472.66;4985985;28;20454;-65
2022/06/05 09:50:40;;;;;;;17.42;12.98;;;;;;;25.55;48.66;101484.25;4986045;28;20037;-65
2022/06/05 09:53:12;;;;;;;17.30;12.80;;;;;;;25.56;49.61;101475.28;4970602;28;20044;-63
2022/06/05 09:56:15;;;;;;;19.30;13.38;;;;;;;25.67;48.04;101472.25;5017659;28;20404;-63
2022/06/05 09:59:00;;;;;;;14.65;11.88;;;;;;;25.43;47.38;101469.56;4928859;28;20144;-65
2022/06/05 10:01:49;;;;;;;17.05;12.70;;;;;;;25.27;48.27;101470.22;5013887;28;20621;-64
2022/06/05 10:04:14;;;;;;;17.70;13.15;;;;;;;25.22;49.82;101469.53;5001971;28;20045;-65
2022/06/05 10:06:45;;;;;;;16.75;12.77;;;;;;;25.29;49.30;101465.69;4985276;28;20060;-66
2022/06/05 10:09:27;;;;;;;17.67;13.00;;;;;;;25.49;49.35;101464.94;4982598;28;20434;-66
2022/06/05 10:11:57;;;;;;;17.25;12.98;;;;;;;25.62;48.37;101459.06;4986311;28;20041;-66
2022/06/05 10:14:44;;;;;;;14.10;11.65;;;;;;;25.58;47.83;101459.25;5017036;28;20033;-65
2022/06/05 10:17:16;;;;;;;16.83;13.07;;;;;;;25.01;48.92;101452.50;4978446;28;20509;-65
2022/06/05 10:20:06;;;;;;;15.63;11.20;;;;;;;25.53;48.41;101451.41;4989241;28;20505;-64
2022/06/05 10:22:54;;;;;;;19.52;13.02;;;;;;;24.43;50.07;101445.72;4980691;28;20046;-65
2022/06/05 10:25:42;;;;;;;16.35;12.10;;;;;;;24.96;49.22;101450.03;4981967;28;20205;-65
2022/06/05 10:28:24;;;;;;;15.68;11.10;;;;;;;25.41;49.84;101454.56;4982400;28;21109;-65
2022/06/05 10:30:56;;;;;;;16.00;12.35;;;;;;;25.34;48.73;101448.59;4988583;28;20135;-63
2022/06/05 10:33:31;;;;;;;17.35;12.48;;;;;;;25.34;47.69;101437.91;4982477;28;20130;-65
2022/06/05 10:36:16;;;;;;;17.90;12.63;;;;;;;24.89;48.63;101424.50;4987461;28;20494;-65
2022/06/05 10:39:05;;;;;;;17.02;12.02;;;;;;;25.07;49.07;101422.09;5002607;28;20056;-69
2022/06/05 10:41:30;;;;;;;15.05;11.15;;;;;;;25.32;48.56;101426.41;4987504;28;20064;-64
2022/06/05 10:44:10;;;;;;;17.15;11.90;;;;;;;25.45;47.62;101427.66;4987115;28;20469;-66
2022/06/05 10:46:41;;;;;;;18.60;12.73;;;;;;;25.45;47.61;101421.47;4981517;28;20056;-65
2022/06/05 10:49:17;;;;;;;15.93;12.50;;;;;;;25.03;47.63;101419.53;4978775;28;20041;-66
2022/06/05 10:52:05;;;;;;;14.52;12.20;;;;;;;24.31;49.24;101417.72;4983057;28;20308;-65
2022/06/05 10:54:31;;;;;;;20.95;13.02;;;;;;;24.01;50.38;101418.72;4995033;28;20045;-64
2022/06/05 10:57:09;;;;;;;17.23;12.32;;;;;;;24.30;50.29;101407.09;4973474;28;20072;-64
2022/06/05 11:00:05;;;;;;;16.70;12.80;;;;;;;24.41;50.72;101411.13;4983334;28;20794;-66
2022/06/05 11:03:09;;;;;;;18.77;11.30;;;;;;;24.32;50.60;101407.91;4960355;28;20049;-64
2022/06/05 11:06:00;;;;;;;15.70;12.02;;;;;;;24.54;49.55;101414.22;4979577;28;20065;-65
2022/06/05 11:08:58;;;;;;;17.27;11.15;;;;;;;24.59;49.77;101417.59;4979348;28;20081;-65
2022/06/05 11:15:15;;;;;;;18.08;12.90;;;;;;;23.92;51.38;101417.22;4977999;28;20143;-66
2022/06/05 11:17:59;;;;;;;19.25;13.32;;;;;;;23.51;51.39;101415.03;4967208;28;20056;-63
2022/06/05 11:20:26;;;;;;;;;;;;;;;23.63;50.77;101404.00;4976356;28;20052;-69
2022/06/05 11:22:59;;;;;;;22.73;13.88;;;;;;;23.54;52.16;101404.31;4977505;28;20027;-65
2022/06/05 11:25:32;;;;;;;19.08;13.82;;;;;;;23.49;51.63;101403.53;4968896;28;20053;-64
2022/06/05 11:28:19;;;;;;;15.98;11.50;;;;;;;23.75;52.46;101395.59;4970385;28;20508;-64
2022/06/05 11:31:22;;;;;;;18.05;13.65;;;;;;;23.48;52.33;101389.41;4985327;28;20053;-66
2022/06/05 11:34:04;;;;;;;19.13;13.57;;;;;;;23.30;52.85;101387.25;4981385;28;20448;-67
2022/06/05 11:36:42;;;;;;;18.95;13.32;;;;;;;23.69;52.73;101395.81;4978894;28;20104;-65
2022/06/05 11:39:07;;;;;;;21.40;14.85;;;;;;;23.30;52.58;101389.91;4976522;28;20045;-64
2022/06/05 11:41:46;;;;;;;20.35;13.35;;;;;;;23.67;53.26;101395.84;4980036;28;20179;-66
2022/06/05 11:44:32;;;;;;;21.42;14.23;;;;;;;23.36;53.65;101387.09;4978994;28;20544;-66
2022/06/05 11:47:03;;;;;;;19.02;13.35;;;;;;;23.51;53.59;101388.41;4970527;28;20531;-67
2022/06/05 11:49:47;;;;;;;18.85;13.45;;;;;;;23.55;53.15;101390.03;4977708;28;20627;-65
2022/06/05 11:52:22;;;;;;;19.17;13.32;;;;;;;23.75;52.32;101384.97;4975902;28;20817;-66
2022/06/05 11:55:06;;;;;;;18.45;14.25;;;;;;;23.78;53.53;101388.41;4980957;28;20037;-65
2022/06/05 11:57:46;;;;;;;20.48;14.80;;;;;;;23.60;53.37;101385.47;4985306;28;20038;-64